Time;durP1;ratioP1;P1;durP2;ratioP2;P2;SDS_P1;SDS_P2;PMS_P1;PMS_P2;Temp;Humidity;BMP_temperature;BMP_pressure;BME280_temperature;BME280_humidity;BME280_pressure;Samples;Min_cycle;Max_cycle;Signal;HPM_P1;HPM_P2
2022/10/18 00:00:25;;;;;;;13.97;6.07;;;13.90;99.90;;;;;;5039586;28;20060;-76
2022/10/18 00:02:51;;;;;;;11.25;6.20;;;13.90;99.90;;;;;;5043938;28;20365;-77
2022/10/18 00:05:17;;;;;;;13.15;5.78;;;13.90;99.90;;;;;;5040007;28;20107;-77
2022/10/18 00:07:43;;;;;;;15.05;6.38;;;13.80;99.90;;;;;;5039236;28;20391;-77
2022/10/18 00:10:09;;;;;;;13.20;5.18;;;13.90;99.90;;;;;;5040584;28;20286;-77
2022/10/18 00:12:35;;;;;;;11.55;5.75;;;13.80;99.90;;;;;;5043678;28;20056;-76
2022/10/18 00:15:02;;;;;;;12.13;6.03;;;13.80;99.90;;;;;;5043693;28;20513;-76
2022/10/18 00:17:28;;;;;;;11.93;5.50;;;13.80;99.90;;;;;;5041907;28;20053;-76
2022/10/18 00:19:54;;;;;;;11.70;5.38;;;13.80;99.90;;;;;;5038881;28;20517;-77
2022/10/18 00:22:22;;;;;;;8.23;4.82;;;13.70;99.90;;;;;;5038063;28;20124;-77
2022/10/18 00:24:48;;;;;;;10.70;5.45;;;13.70;99.90;;;;;;5036811;28;20175;-76
2022/10/18 00:27:14;;;;;;;13.13;6.20;;;13.80;99.90;;;;;;5044218;28;20041;-77
2022/10/18 00:29:39;;;;;;;8.67;4.93;;;13.70;99.90;;;;;;5046583;28;20332;-77
2022/10/18 00:32:05;;;;;;;9.90;5.73;;;13.70;99.90;;;;;;5036147;28;20287;-77
2022/10/18 00:34:30;;;;;;;8.02;4.97;;;13.70;99.90;;;;;;5044595;28;20418;-77
2022/10/18 00:36:56;;;;;;;11.73;5.63;;;13.70;99.90;;;;;;5034421;28;20440;-77
2022/10/18 00:39:22;;;;;;;14.70;5.33;;;13.80;99.90;;;;;;5038337;28;20112;-77
2022/10/18 00:41:51;;;;;;;9.45;5.18;;;13.70;99.90;;;;;;5027480;28;20077;-77
2022/10/18 00:44:16;;;;;;;10.00;5.03;;;13.70;99.90;;;;;;5044637;28;20134;-77
2022/10/18 00:46:45;;;;;;;11.53;4.90;;;13.60;99.90;;;;;;5043353;28;20080;-77
2022/10/18 00:49:16;;;;;;;10.43;5.22;;;13.70;99.90;;;;;;5037400;28;20182;-77
2022/10/18 00:51:55;;;;;;;18.23;5.20;;;13.60;99.90;;;;;;5041941;28;20072;-77
2022/10/18 00:54:20;;;;;;;14.27;5.50;;;13.60;99.90;;;;;;5045199;28;20041;-77
2022/10/18 00:56:46;;;;;;;10.95;5.25;;;13.60;99.90;;;;;;5044881;28;20045;-77
2022/10/18 00:59:14;;;;;;;14.23;5.03;;;13.60;99.90;;;;;;5026853;28;20120;-77
2022/10/18 01:01:40;;;;;;;11.13;5.13;;;13.60;99.90;;;;;;5047562;28;20114;-77
2022/10/18 01:04:08;;;;;;;8.20;5.10;;;13.60;99.90;;;;;;5046973;28;20362;-77
2022/10/18 01:06:49;;;;;;;8.83;5.23;;;13.60;99.90;;;;;;5036173;28;20471;-77
2022/10/18 01:09:38;;;;;;;10.30;5.32;;;13.50;99.90;;;;;;5045260;28;20294;-77
2022/10/18 01:12:26;;;;;;;16.00;5.65;;;13.50;99.90;;;;;;5039317;28;20037;-77
2022/10/18 01:14:51;;;;;;;;;;;13.50;99.90;;;;;;5043101;28;20392;-77
2022/10/18 01:17:39;;;;;;;10.60;4.72;;;13.40;99.90;;;;;;5045943;28;19946;-77
2022/10/18 01:20:17;;;;;;;13.18;5.72;;;13.40;99.90;;;;;;5005255;28;20067;-77
2022/10/18 01:22:47;;;;;;;11.77;6.05;;;13.40;99.90;;;;;;5044214;28;20303;-77
2022/10/18 01:25:39;;;;;;;9.70;5.53;;;13.40;99.90;;;;;;5038494;28;20060;-77
2022/10/18 01:28:23;;;;;;;15.90;6.60;;;13.40;99.90;;;;;;5021010;28;20040;-77
2022/10/18 01:30:52;;;;;;;23.33;7.07;;;13.40;99.90;;;;;;5049761;28;20077;-77
2022/10/18 01:33:24;;;;;;;12.75;5.85;;;13.40;99.90;;;;;;5036887;28;20052;-77
2022/10/18 01:36:06;;;;;;;13.90;5.72;;;13.40;99.90;;;;;;5047246;28;20040;-77
2022/10/18 01:38:35;;;;;;;26.27;6.50;;;13.40;99.90;;;;;;5047443;28;20052;-77
2022/10/18 01:41:03;;;;;;;19.38;5.78;;;13.50;99.90;;;;;;5044336;28;20316;-77
2022/10/18 01:43:32;;;;;;;9.27;5.50;;;13.40;99.90;;;;;;5047681;28;20417;-77
2022/10/18 01:45:59;;;;;;;23.40;5.78;;;13.40;99.90;;;;;;5065299;28;20044;-77
2022/10/18 01:48:25;;;;;;;16.05;5.40;;;13.40;99.90;;;;;;5038488;28;20404;-77
2022/10/18 01:50:52;;;;;;;18.98;5.93;;;13.40;99.90;;;;;;5046580;28;20402;-77
2022/10/18 01:53:24;;;;;;;10.82;5.82;;;13.40;99.90;;;;;;5066653;28;20071;-77
2022/10/18 01:56:09;;;;;;;17.85;6.10;;;13.40;99.90;;;;;;5032070;28;20062;-77
2022/10/18 01:58:43;;;;;;;19.77;6.50;;;13.40;99.90;;;;;;5048832;28;20051;-77
2022/10/18 02:01:20;;;;;;;21.30;6.47;;;13.40;99.90;;;;;;5045853;28;20439;-76
2022/10/18 02:03:49;;;;;;;12.23;6.20;;;13.40;99.90;;;;;;5063578;28;20139;-77
2022/10/18 02:06:39;;;;;;;11.73;6.28;;;13.40;99.90;;;;;;5062351;28;20051;-77
2022/10/18 02:09:21;;;;;;;20.88;7.47;;;13.30;99.90;;;;;;5062755;28;20802;-77
2022/10/18 02:11:52;;;;;;;21.63;7.03;;;13.40;99.90;;;;;;5046285;28;20383;-76
2022/10/18 02:14:20;;;;;;;21.45;6.03;;;13.40;99.90;;;;;;5066645;28;20082;-75
2022/10/18 02:16:52;;;;;;;15.60;6.53;;;13.40;99.90;;;;;;5051142;28;20040;-75
2022/10/18 02:19:35;;;;;;;22.73;7.03;;;13.30;99.90;;;;;;5049572;28;20315;-75
2022/10/18 02:22:02;;;;;;;16.33;6.22;;;13.40;99.90;;;;;;5050233;28;20106;-75
2022/10/18 02:24:36;;;;;;;18.50;6.18;;;13.40;99.90;;;;;;5067849;28;20048;-75
2022/10/18 02:27:02;;;;;;;18.67;6.95;;;13.40;99.90;;;;;;5067839;28;20375;-74
2022/10/18 02:29:28;;;;;;;14.07;6.00;;;13.40;99.90;;;;;;5066730;28;20040;-74
2022/10/18 02:32:09;;;;;;;25.10;6.90;;;13.50;99.90;;;;;;5052358;28;20044;-76
2022/10/18 02:34:42;;;;;;;20.10;6.50;;;13.40;99.90;;;;;;5049244;28;20414;-75
2022/10/18 02:37:10;;;;;;;16.08;6.40;;;13.40;99.90;;;;;;5058923;28;20078;-76
2022/10/18 02:39:39;;;;;;;25.70;6.28;;;13.50;99.90;;;;;;5060879;22;20044;-74
2022/10/18 02:42:05;;;;;;;25.95;5.97;;;13.40;99.90;;;;;;5054338;28;20059;-74
2022/10/18 02:44:35;;;;;;;22.95;6.03;;;13.30;99.90;;;;;;5056160;28;20106;-74
2022/10/18 02:47:02;;;;;;;18.27;6.03;;;13.30;99.90;;;;;;5055486;28;20063;-74
2022/10/18 02:49:27;;;;;;;15.13;5.88;;;13.30;99.90;;;;;;5055271;28;20051;-74
2022/10/18 02:51:53;;;;;;;11.87;5.57;;;13.40;99.90;;;;;;5054625;28;20048;-74
2022/10/18 02:54:18;;;;;;;14.27;6.30;;;13.30;99.90;;;;;;5059073;28;20304;-74
2022/10/18 02:56:44;;;;;;;21.43;5.73;;;13.30;99.90;;;;;;5060070;28;20048;-74
2022/10/18 02:59:10;;;;;;;13.90;5.33;;;13.30;99.90;;;;;;5056202;28;20055;-74
2022/10/18 03:01:36;;;;;;;30.20;5.50;;;13.30;99.90;;;;;;5062873;28;20397;-74
2022/10/18 03:04:03;;;;;;;25.92;5.60;;;13.30;99.90;;;;;;5063027;28;20036;-73
2022/10/18 03:06:30;;;;;;;21.83;5.45;;;13.30;99.90;;;;;;5067043;28;20056;-74
2022/10/18 03:08:56;;;;;;;13.35;5.05;;;13.30;99.90;;;;;;5056615;28;20504;-74
2022/10/18 03:11:22;;;;;;;14.27;5.20;;;13.30;99.90;;;;;;5056117;28;20114;-74
2022/10/18 03:13:49;;;;;;;27.90;5.00;;;13.20;99.90;;;;;;5058682;28;20338;-74
2022/10/18 03:16:15;;;;;;;30.55;5.13;;;13.20;99.90;;;;;;5052712;28;20077;-74
2022/10/18 03:18:41;;;;;;;25.15;5.07;;;13.20;99.90;;;;;;5060196;28;20071;-74
2022/10/18 03:21:07;;;;;;;19.93;5.27;;;13.30;99.90;;;;;;5063642;28;20084;-74
2022/10/18 03:23:33;;;;;;;13.85;5.32;;;13.30;99.90;;;;;;5060279;28;20066;-74
2022/10/18 03:25:58;;;;;;;19.55;5.03;;;13.20;99.90;;;;;;5059641;28;20071;-74
2022/10/18 03:28:24;;;;;;;21.37;5.90;;;13.10;99.90;;;;;;5036152;28;20422;-74
2022/10/18 03:30:49;;;;;;;10.50;5.07;;;13.20;99.90;;;;;;5059941;28;20043;-74
2022/10/18 03:33:15;;;;;;;23.37;4.63;;;13.20;99.90;;;;;;5058182;28;20171;-74
2022/10/18 03:35:41;;;;;;;14.38;5.22;;;13.20;99.90;;;;;;5042733;28;20056;-74
2022/10/18 03:38:06;;;;;;;12.27;4.97;;;13.10;99.90;;;;;;5055271;28;20066;-74
2022/10/18 03:40:32;;;;;;;12.48;4.72;;;13.10;99.90;;;;;;5040245;28;20194;-74
2022/10/18 03:42:58;;;;;;;12.93;4.75;;;13.10;99.90;;;;;;5060344;28;20435;-74
2022/10/18 03:45:24;;;;;;;13.70;4.95;;;13.00;99.90;;;;;;5040660;28;20044;-74
2022/10/18 03:47:49;;;;;;;9.30;4.60;;;13.00;99.90;;;;;;5055564;28;20041;-74
2022/10/18 03:50:15;;;;;;;7.23;4.67;;;13.00;99.90;;;;;;5046313;28;20037;-74
2022/10/18 03:52:40;;;;;;;10.87;4.87;;;13.00;99.90;;;;;;5055760;28;20123;-74
2022/10/18 03:55:06;;;;;;;9.32;5.00;;;13.00;99.90;;;;;;5059238;28;20038;-74
2022/10/18 03:57:32;;;;;;;13.50;4.90;;;13.00;99.90;;;;;;5059030;28;20056;-74
2022/10/18 03:59:58;;;;;;;10.67;4.70;;;13.00;99.90;;;;;;5063304;28;20032;-74
2022/10/18 04:02:24;;;;;;;20.53;5.33;;;12.90;99.90;;;;;;5061052;28;20324;-74
2022/10/18 04:04:49;;;;;;;9.43;5.00;;;12.90;99.90;;;;;;5058413;28;20297;-74
2022/10/18 04:07:15;;;;;;;15.88;4.82;;;12.90;99.90;;;;;;5061060;28;20086;-74
2022/10/18 04:09:41;;;;;;;16.17;5.13;;;12.90;99.90;;;;;;5053952;28;20089;-74
2022/10/18 04:12:06;;;;;;;12.93;4.90;;;12.90;99.90;;;;;;5072649;28;20330;-74
2022/10/18 04:14:32;;;;;;;9.57;4.07;;;12.80;99.90;;;;;;5052925;28;20627;-74
2022/10/18 04:16:57;;;;;;;10.70;4.30;;;12.80;99.90;;;;;;5048271;28;20044;-74
2022/10/18 04:19:23;;;;;;;13.73;4.33;;;12.70;99.90;;;;;;5056026;28;20051;-74
2022/10/18 04:21:49;;;;;;;20.07;4.70;;;12.80;99.90;;;;;;5063605;28;20277;-74
2022/10/18 04:24:16;;;;;;;12.27;4.80;;;12.70;99.90;;;;;;5060912;28;20312;-74
2022/10/18 04:26:42;;;;;;;11.43;5.07;;;12.70;99.90;;;;;;5065399;28;20048;-74
2022/10/18 04:29:08;;;;;;;11.88;4.57;;;12.70;99.90;;;;;;5056188;28;20051;-74
2022/10/18 04:31:33;;;;;;;14.32;4.93;;;12.70;99.90;;;;;;5065774;28;20105;-74
2022/10/18 04:33:59;;;;;;;11.80;4.07;;;12.70;99.90;;;;;;5054502;28;20141;-74
2022/10/18 04:36:24;;;;;;;12.50;4.23;;;12.60;99.90;;;;;;5044439;28;20282;-74
2022/10/18 04:38:50;;;;;;;10.30;4.57;;;12.60;99.90;;;;;;5050125;28;20036;-73
2022/10/18 04:41:16;;;;;;;6.63;3.90;;;12.50;99.90;;;;;;5063411;28;20112;-73
2022/10/18 04:43:41;;;;;;;7.03;4.57;;;12.50;99.90;;;;;;5056275;28;20273;-74
2022/10/18 04:46:07;;;;;;;12.63;4.77;;;12.50;99.90;;;;;;5057439;28;20044;-73
2022/10/18 04:48:32;;;;;;;10.13;3.97;;;12.50;99.90;;;;;;5064529;28;20044;-74
2022/10/18 04:50:58;;;;;;;6.70;4.23;;;12.50;99.90;;;;;;5048952;28;20553;-74
2022/10/18 04:53:24;;;;;;;10.65;4.82;;;12.50;99.90;;;;;;5050525;28;20943;-74
2022/10/18 04:55:50;;;;;;;9.53;4.43;;;12.50;99.90;;;;;;5055191;28;20044;-74
2022/10/18 04:58:17;;;;;;;10.23;4.68;;;12.40;99.90;;;;;;5060166;28;20482;-73
2022/10/18 05:00:43;;;;;;;14.95;4.50;;;12.40;99.90;;;;;;5055987;28;20044;-73
2022/10/18 05:03:11;;;;;;;7.50;4.53;;;12.40;99.90;;;;;;5053074;28;20036;-73
2022/10/18 05:05:36;;;;;;;10.63;4.88;;;12.40;99.90;;;;;;5061543;28;20055;-73
2022/10/18 05:08:02;;;;;;;7.25;4.18;;;12.40;99.90;;;;;;5052436;28;20049;-74
2022/10/18 05:10:28;;;;;;;8.68;4.18;;;12.30;99.90;;;;;;5050417;28;20410;-74
2022/10/18 05:12:54;;;;;;;7.15;4.05;;;12.30;99.90;;;;;;5038230;28;20040;-74
2022/10/18 05:15:19;;;;;;;9.63;4.77;;;12.30;99.90;;;;;;5056154;28;20041;-73
2022/10/18 05:17:45;;;;;;;9.30;4.10;;;12.20;99.90;;;;;;5054483;28;20076;-74
2022/10/18 05:20:10;;;;;;;7.57;4.67;;;12.20;99.90;;;;;;5064066;28;20120;-73
2022/10/18 05:22:36;;;;;;;9.00;5.00;;;12.20;99.90;;;;;;5055349;28;20226;-74
2022/10/18 05:25:02;;;;;;;10.17;5.37;;;12.20;99.90;;;;;;5053031;28;20380;-74
2022/10/18 05:27:28;;;;;;;12.63;5.75;;;12.10;99.90;;;;;;5056600;28;20199;-73
2022/10/18 05:29:53;;;;;;;8.75;4.63;;;12.10;99.90;;;;;;5051561;28;20036;-78
2022/10/18 05:32:19;;;;;;;8.30;4.87;;;12.10;99.90;;;;;;5059460;28;20076;-74
2022/10/18 05:34:45;;;;;;;14.07;4.67;;;12.10;99.90;;;;;;5060688;28;20056;-74
2022/10/18 05:37:10;;;;;;;7.63;4.50;;;12.10;99.90;;;;;;5051039;28;20539;-74
2022/10/18 05:39:37;;;;;;;11.23;4.90;;;12.00;99.90;;;;;;5059613;28;20084;-74
2022/10/18 05:42:03;;;;;;;7.35;4.15;;;12.00;99.90;;;;;;5051401;28;20393;-75
2022/10/18 05:44:28;;;;;;;6.65;3.90;;;12.00;99.90;;;;;;5054106;28;20049;-75
2022/10/18 05:46:54;;;;;;;6.47;3.70;;;11.90;99.90;;;;;;5049467;28;20098;-74
2022/10/18 05:49:20;;;;;;;6.17;3.37;;;11.90;99.90;;;;;;5058357;28;20365;-74
2022/10/18 05:51:45;;;;;;;12.00;3.80;;;11.90;99.90;;;;;;5054383;28;20037;-74
2022/10/18 05:54:11;;;;;;;6.27;3.43;;;11.90;99.90;;;;;;5060953;28;20037;-74
2022/10/18 05:56:38;;;;;;;7.65;3.95;;;11.80;99.90;;;;;;5062432;28;20037;-74
2022/10/18 05:59:08;;;;;;;6.78;3.40;;;11.80;99.90;;;;;;5067006;28;20114;-74
2022/10/18 06:01:35;;;;;;;10.95;3.20;;;11.80;99.90;;;;;;5054853;28;20037;-74
2022/10/18 06:04:00;;;;;;;9.13;4.07;;;11.70;99.90;;;;;;5060831;28;20033;-74
2022/10/18 06:06:26;;;;;;;4.50;2.70;;;11.70;99.90;;;;;;5045421;28;20486;-74
2022/10/18 06:08:52;;;;;;;7.53;3.40;;;11.60;99.90;;;;;;5048921;28;20574;-74
2022/10/18 06:11:19;;;;;;;8.55;3.15;;;11.60;99.90;;;;;;5058012;28;20037;-74
2022/10/18 06:13:46;;;;;;;10.02;3.78;;;11.60;99.90;;;;;;5075812;28;20048;-75
2022/10/18 06:16:14;;;;;;;5.90;3.30;;;11.60;99.90;;;;;;5056896;28;20044;-74
2022/10/18 06:18:40;;;;;;;7.05;3.28;;;11.50;99.90;;;;;;5051588;28;20104;-75
2022/10/18 06:21:07;;;;;;;5.43;3.35;;;11.50;99.90;;;;;;5059570;28;20131;-75
2022/10/18 06:23:33;;;;;;;8.27;3.40;;;11.50;99.90;;;;;;5062357;28;20044;-74
2022/10/18 06:26:02;;;;;;;;;;;11.40;99.90;;;;;;5062353;28;20417;-74
2022/10/18 06:28:29;;;;;;;5.45;3.10;;;11.30;99.90;;;;;;5053349;28;19924;-74
2022/10/18 06:30:55;;;;;;;6.38;3.10;;;11.40;99.90;;;;;;5051248;28;20322;-74
2022/10/18 06:33:21;;;;;;;4.78;2.70;;;11.30;99.90;;;;;;5060562;28;20043;-74
2022/10/18 06:36:00;;;;;;;5.32;2.95;;;11.30;99.90;;;;;;5062046;28;20044;-74
2022/10/18 06:38:28;;;;;;;6.97;3.50;;;11.30;99.90;;;;;;5054009;28;20043;-74
2022/10/18 06:40:55;;;;;;;7.40;2.67;;;11.30;99.90;;;;;;5052738;28;20192;-74
2022/10/18 06:43:21;;;;;;;3.55;2.40;;;11.30;99.90;;;;;;5059994;28;20052;-74
2022/10/18 06:45:48;;;;;;;5.10;2.78;;;11.30;99.90;;;;;;5058540;28;20143;-74
2022/10/18 06:48:13;;;;;;;;;;;11.30;99.90;;;;;;5072424;28;20185;-74
2022/10/18 06:50:39;;;;;;;6.03;2.97;;;11.30;99.90;;;;;;5059912;28;20028;-74
2022/10/18 06:53:07;;;;;;;6.90;3.73;;;11.30;99.90;;;;;;5064404;28;20056;-74
2022/10/18 06:55:34;;;;;;;6.45;3.70;;;11.20;99.90;;;;;;5074519;28;20493;-74
2022/10/18 06:58:02;;;;;;;5.63;2.80;;;11.20;99.90;;;;;;5056960;28;20131;-74
2022/10/18 07:00:28;;;;;;;4.03;2.50;;;11.20;99.90;;;;;;5065342;28;20051;-74
2022/10/18 07:02:53;;;;;;;4.20;2.43;;;11.20;99.90;;;;;;5056693;28;20647;-74
2022/10/18 07:05:19;;;;;;;10.13;2.30;;;11.20;99.90;;;;;;5056176;28;20144;-74
2022/10/18 07:07:44;;;;;;;4.40;2.60;;;11.20;99.90;;;;;;5069924;28;20372;-74
2022/10/18 07:10:10;;;;;;;3.80;2.17;;;11.10;99.90;;;;;;5056469;28;20138;-74
2022/10/18 07:12:35;;;;;;;2.93;1.87;;;11.10;99.90;;;;;;5054305;28;20051;-74
2022/10/18 07:15:01;;;;;;;4.20;2.40;;;11.10;99.90;;;;;;5063401;28;20478;-74
2022/10/18 07:17:27;;;;;;;5.63;2.53;;;11.10;99.90;;;;;;5065835;28;20104;-74
2022/10/18 07:19:52;;;;;;;4.27;2.30;;;11.10;99.90;;;;;;5061024;28;20048;-74
2022/10/18 07:22:18;;;;;;;6.90;2.70;;;11.20;99.90;;;;;;5050336;28;20666;-74
2022/10/18 07:24:43;;;;;;;5.20;2.50;;;11.10;99.90;;;;;;5067944;28;20080;-74
2022/10/18 07:27:09;;;;;;;4.43;2.97;;;11.20;99.90;;;;;;5047332;28;20057;-74
2022/10/18 07:29:37;;;;;;;4.80;2.50;;;11.20;99.90;;;;;;5055016;28;20496;-74
2022/10/18 07:32:03;;;;;;;7.15;2.88;;;11.20;99.90;;;;;;5054933;28;20029;-74
2022/10/18 07:34:28;;;;;;;5.20;2.60;;;11.20;99.90;;;;;;5044797;28;20498;-74
2022/10/18 07:36:54;;;;;;;8.90;2.77;;;11.30;99.90;;;;;;5072944;28;20108;-74
2022/10/18 07:39:20;;;;;;;4.50;3.03;;;11.30;99.90;;;;;;5065612;28;20047;-74
2022/10/18 07:41:45;;;;;;;6.27;2.80;;;11.30;99.90;;;;;;5049710;28;20278;-74
2022/10/18 07:44:11;;;;;;;6.05;3.15;;;11.40;99.90;;;;;;5055550;28;20051;-74
2022/10/18 07:46:37;;;;;;;5.37;3.17;;;11.40;99.90;;;;;;5063575;28;20155;-75
2022/10/18 07:49:03;;;;;;;7.50;3.20;;;11.40;99.90;;;;;;5073332;28;20046;-75
2022/10/18 07:51:31;;;;;;;5.35;2.75;;;11.50;99.90;;;;;;5058155;28;20347;-75
2022/10/18 07:53:57;;;;;;;5.93;3.28;;;11.60;99.90;;;;;;5070655;28;20059;-75
2022/10/18 07:56:23;;;;;;;10.55;3.22;;;11.60;99.90;;;;;;5067363;28;20035;-75
2022/10/18 07:58:51;;;;;;;10.05;2.72;;;11.60;99.90;;;;;;5056507;28;20177;-75
2022/10/18 08:01:19;;;;;;;6.22;2.72;;;11.70;99.90;;;;;;5053271;28;20041;-75
2022/10/18 08:03:45;;;;;;;9.40;2.78;;;11.80;99.90;;;;;;5065549;28;20439;-75
2022/10/18 08:06:12;;;;;;;4.90;2.65;;;11.80;99.90;;;;;;5071618;28;20127;-75
2022/10/18 08:08:39;;;;;;;4.07;2.35;;;11.90;99.90;;;;;;5068479;28;20136;-75
2022/10/18 08:11:20;;;;;;;7.43;2.60;;;11.90;99.90;;;;;;5065555;28;20483;-75
2022/10/18 08:13:46;;;;;;;7.45;2.47;;;12.00;99.90;;;;;;5067441;28;20122;-75
2022/10/18 08:16:14;;;;;;;7.05;2.13;;;12.00;99.90;;;;;;5058383;28;20478;-75
2022/10/18 08:18:40;;;;;;;6.65;2.22;;;12.10;99.90;;;;;;5055747;28;20087;-75
2022/10/18 08:21:08;;;;;;;7.97;3.45;;;12.20;99.90;;;;;;5063974;28;20071;-75
2022/10/18 08:23:34;;;;;;;7.28;2.90;;;12.20;99.90;;;;;;5066464;28;20051;-75
2022/10/18 08:26:04;;;;;;;;;;;12.30;99.90;;;;;;5062570;28;20425;-75
2022/10/18 08:28:29;;;;;;;8.65;3.13;;;12.40;99.90;;;;;;5057142;28;19992;-75
2022/10/18 08:30:55;;;;;;;12.00;2.53;;;12.50;99.90;;;;;;5070477;28;20033;-76
2022/10/18 08:33:20;;;;;;;3.93;2.10;;;12.50;99.90;;;;;;5053856;28;20052;-75
2022/10/18 08:36:00;;;;;;;12.83;2.17;;;12.60;99.90;;;;;;5065112;28;20262;-75
2022/10/18 08:38:30;;;;;;;14.32;2.20;;;12.70;99.90;;;;;;5065602;28;20047;-75
2022/10/18 08:40:57;;;;;;;7.50;2.17;;;12.80;99.90;;;;;;5100004;22;20275;-71
2022/10/18 08:43:36;;;;;;;10.48;2.20;;;12.90;99.90;;;;;;5106448;28;20036;-71
2022/10/18 08:46:02;;;;;;;6.80;1.67;;;12.90;99.90;;;;;;5103674;28;20449;-71
2022/10/18 08:48:50;;;;;;;6.03;1.85;;;13.10;99.90;;;;;;5104371;28;20071;-71
2022/10/18 08:51:32;;;;;;;4.55;1.75;;;13.00;99.90;;;;;;5100955;28;20127;-71
2022/10/18 08:54:12;;;;;;;7.88;1.88;;;13.20;99.90;;;;;;5104471;28;20035;-73
2022/10/18 08:56:40;;;;;;;6.80;2.00;;;13.30;99.90;;;;;;5108306;28;20146;-73
2022/10/18 08:59:10;;;;;;;8.35;1.50;;;13.40;99.90;;;;;;5100600;28;20063;-73
2022/10/18 09:01:52;;;;;;;6.47;1.73;;;13.40;99.90;;;;;;5105203;28;20400;-73
2022/10/18 09:04:39;;;;;;;8.75;1.75;;;13.50;99.90;;;;;;5101320;28;20084;-73
2022/10/18 09:07:22;;;;;;;8.38;1.95;;;13.60;99.90;;;;;;5105138;28;20088;-73
2022/10/18 09:10:07;;;;;;;9.35;1.83;;;13.70;99.90;;;;;;5098962;28;20558;-73
2022/10/18 09:12:53;;;;;;;6.95;1.30;;;13.80;99.90;;;;;;5095904;28;20075;-73
2022/10/18 09:15:33;;;;;;;5.00;1.45;;;13.80;99.90;;;;;;5106495;28;20038;-73
2022/10/18 09:18:17;;;;;;;5.55;1.38;;;13.90;99.90;;;;;;5099088;28;20036;-73
2022/10/18 09:20:55;;;;;;;4.80;1.73;;;14.00;99.90;;;;;;5106279;28;20043;-73
2022/10/18 09:23:45;;;;;;;5.85;1.80;;;14.10;99.90;;;;;;5107872;28;20043;-73
2022/10/18 09:26:20;;;;;;;7.28;1.50;;;14.20;99.90;;;;;;5101960;28;20500;-73
2022/10/18 09:29:17;;;;;;;5.75;1.60;;;14.20;99.90;;;;;;5104723;28;20048;-73
2022/10/18 09:32:12;;;;;;;6.50;1.42;;;14.30;99.90;;;;;;5108020;28;20031;-73
2022/10/18 09:34:44;;;;;;;7.30;1.40;;;14.40;99.90;;;;;;5105970;28;20118;-73
2022/10/18 09:37:13;;;;;;;5.80;1.95;;;14.40;99.90;;;;;;5107171;28;20484;-73
2022/10/18 09:39:40;;;;;;;4.20;0.85;;;14.50;99.90;;;;;;5100071;28;20258;-73
2022/10/18 09:42:36;;;;;;;9.15;1.90;;;14.60;99.90;;;;;;5106987;28;20132;-73
2022/10/18 09:45:19;;;;;;;5.05;1.08;;;14.60;99.90;;;;;;5101297;28;20031;-73
2022/10/18 09:47:52;;;;;;;3.55;1.02;;;14.70;99.90;;;;;;5104853;28;20087;-73
2022/10/18 09:50:34;;;;;;;4.78;1.33;;;14.80;99.90;;;;;;5107373;28;20170;-73
2022/10/18 09:53:34;;;;;;;7.60;1.15;;;14.90;99.90;;;;;;5102503;28;20039;-73
2022/10/18 09:56:14;;;;;;;12.00;1.40;;;15.00;99.90;;;;;;5105093;28;20032;-73
2022/10/18 09:58:45;;;;;;;5.65;1.20;;;15.10;99.90;;;;;;5106871;28;20370;-73
2022/10/18 10:01:19;;;;;;;8.68;1.08;;;15.10;99.90;;;;;;5103223;28;20262;-73
2022/10/18 10:03:45;;;;;;;5.97;1.08;;;15.20;99.90;;;;;;5100589;28;20043;-72
2022/10/18 10:06:14;;;;;;;7.20;1.25;;;15.20;99.90;;;;;;5103928;28;20338;-72
2022/10/18 10:08:48;;;;;;;9.77;1.35;;;15.10;99.90;;;;;;5095231;28;20404;-74
2022/10/18 10:11:38;;;;;;;3.13;0.93;;;15.20;99.90;;;;;;5104545;28;20036;-73
2022/10/18 10:14:13;;;;;;;8.25;0.95;;;15.30;99.90;;;;;;5098733;28;20036;-73
2022/10/18 10:16:54;;;;;;;5.57;0.90;;;15.30;99.90;;;;;;5102164;28;20107;-72
2022/10/18 10:19:27;;;;;;;6.93;0.90;;;15.40;99.90;;;;;;5091507;28;20040;-73
2022/10/18 10:21:58;;;;;;;5.75;1.15;;;15.40;99.90;;;;;;5093894;28;20036;-73
2022/10/18 10:24:45;;;;;;;9.32;0.90;;;15.40;99.90;;;;;;5101211;28;20114;-73
2022/10/18 10:27:29;;;;;;;7.97;2.15;;;15.30;99.90;;;;;;5091193;28;20118;-72
2022/10/18 10:29:57;;;;;;;4.20;0.93;;;15.40;99.90;;;;;;5103609;28;20046;-72
2022/10/18 10:32:26;;;;;;;4.30;0.70;;;15.40;99.90;;;;;;5105888;28;20621;-72
2022/10/18 10:34:52;;;;;;;1.90;0.55;;;15.30;99.90;;;;;;5086608;28;20051;-73
2022/10/18 10:37:31;;;;;;;;;;;15.40;99.90;;;;;;5106632;28;20476;-73
2022/10/18 10:40:19;;;;;;;12.68;1.60;;;15.50;99.90;;;;;;5093623;28;20402;-72
2022/10/18 10:42:56;;;;;;;3.28;0.85;;;15.70;99.90;;;;;;5094784;28;20039;-72
2022/10/18 10:45:25;;;;;;;8.10;1.15;;;15.80;99.90;;;;;;5100207;28;20035;-73
2022/10/18 10:47:53;;;;;;;8.38;0.88;;;15.90;99.90;;;;;;5105907;28;20385;-72
2022/10/18 10:50:25;;;;;;;8.20;1.05;;;15.90;99.90;;;;;;5101256;28;20485;-73
2022/10/18 10:52:51;;;;;;;6.30;1.77;;;16.00;99.90;;;;;;5100627;28;20036;-73
2022/10/18 10:55:18;;;;;;;;;;;16.20;99.90;;;;;;5083892;28;20245;-73
2022/10/18 10:57:47;;;;;;;6.63;1.77;;;16.20;99.90;;;;;;5092920;28;20284;-73
2022/10/18 11:00:35;;;;;;;5.15;1.10;;;16.30;99.90;;;;;;5080770;28;20051;-73
2022/10/18 11:03:17;;;;;;;4.00;0.68;;;16.40;99.90;;;;;;5101376;28;20519;-73
2022/10/18 11:05:48;;;;;;;5.10;1.08;;;16.50;99.90;;;;;;5102631;28;20559;-73
2022/10/18 11:08:26;;;;;;;4.55;0.82;;;16.60;99.90;;;;;;5103720;28;20099;-73
2022/10/18 11:11:01;;;;;;;6.13;1.35;;;16.50;99.90;;;;;;5116644;28;20051;-72
2022/10/18 11:13:52;;;;;;;5.13;0.98;;;16.40;99.90;;;;;;5086860;28;20108;-72
2022/10/18 11:16:41;;;;;;;10.30;0.90;;;16.30;99.90;;;;;;5090290;28;20051;-73
2022/10/18 11:19:49;;;;;;;5.00;1.17;;;16.20;99.90;;;;;;5092716;28;20040;-72
2022/10/18 11:22:19;;;;;;;6.65;0.90;;;16.30;99.90;;;;;;5044746;28;20148;-72
2022/10/18 11:24:45;;;;;;;5.90;0.60;;;16.40;99.90;;;;;;5107034;28;20108;-73
2022/10/18 11:27:19;;;;;;;5.80;1.38;;;16.50;99.90;;;;;;5109736;28;20039;-73
2022/10/18 11:30:26;;;;;;;11.32;1.20;;;16.60;99.90;;;;;;5110022;28;20078;-72
2022/10/18 11:33:23;;;;;;;6.57;0.97;;;16.80;99.90;;;;;;5083080;28;20039;-72
2022/10/18 11:36:03;;;;;;;7.15;1.30;;;16.70;99.90;;;;;;5100672;28;20402;-72
2022/10/18 11:39:04;;;;;;;5.85;1.15;;;16.60;99.90;;;;;;5107062;28;20050;-72
2022/10/18 11:41:30;;;;;;;8.80;1.23;;;16.50;99.90;;;;;;5123438;27;20088;-72
2022/10/18 11:44:09;;;;;;;8.30;1.30;;;16.40;99.90;;;;;;5108839;28;20039;-72
2022/10/18 11:46:43;;;;;;;3.92;0.80;;;16.30;99.90;;;;;;5098946;28;20270;-72
2022/10/18 11:49:12;;;;;;;5.32;1.10;;;16.20;99.90;;;;;;5108750;28;20503;-73
2022/10/18 11:51:58;;;;;;;6.93;0.73;;;16.10;99.90;;;;;;5109361;28;20085;-72
2022/10/18 11:54:49;;;;;;;3.65;0.70;;;16.10;99.90;;;;;;5108885;28;20044;-72
2022/10/18 11:57:39;;;;;;;5.22;1.00;;;16.30;99.90;;;;;;5108616;28;20047;-73
2022/10/18 12:00:18;;;;;;;6.40;0.85;;;16.40;99.90;;;;;;5096020;28;20044;-72
2022/10/18 12:02:49;;;;;;;3.95;1.15;;;16.60;99.90;;;;;;5107333;28;20066;-72
2022/10/18 12:05:16;;;;;;;4.97;1.20;;;16.60;99.90;;;;;;5108621;28;20035;-73
2022/10/18 12:07:55;;;;;;;5.20;1.40;;;16.50;99.90;;;;;;5097353;28;20118;-73
2022/10/18 12:10:22;;;;;;;4.00;1.17;;;16.30;99.90;;;;;;5108320;28;20042;-72
2022/10/18 12:12:51;;;;;;;6.40;1.13;;;16.20;99.90;;;;;;5109111;28;20040;-73
2022/10/18 12:15:21;;;;;;;5.72;0.90;;;16.10;99.90;;;;;;5109024;28;20488;-73
2022/10/18 12:17:51;;;;;;;6.63;0.82;;;16.10;99.90;;;;;;5085934;28;20078;-73
2022/10/18 12:20:31;;;;;;;4.25;0.90;;;16.20;99.90;;;;;;5097472;28;20078;-73
2022/10/18 12:23:00;;;;;;;5.70;1.05;;;16.40;99.90;;;;;;5107010;28;20115;-73
2022/10/18 12:25:29;;;;;;;5.07;0.95;;;16.40;99.90;;;;;;5124802;27;20040;-73
2022/10/18 12:28:20;;;;;;;3.45;0.55;;;16.50;99.90;;;;;;5105924;28;20117;-72
2022/10/18 12:31:19;;;;;;;6.22;1.10;;;16.60;99.90;;;;;;5099832;28;20100;-72
2022/10/18 12:33:50;;;;;;;5.47;0.98;;;16.70;99.90;;;;;;5096333;28;20088;-72
2022/10/18 12:36:48;;;;;;;5.20;0.75;;;16.80;99.90;;;;;;5107331;28;20455;-73
2022/10/18 12:39:24;;;;;;;3.80;0.95;;;17.10;99.90;;;;;;5101838;28;20051;-73
2022/10/18 12:41:54;;;;;;;3.75;0.80;;;17.30;99.90;;;;;;5108345;28;20070;-72
2022/10/18 12:44:34;;;;;;;3.72;0.57;;;17.40;99.90;;;;;;5108156;28;20069;-73
2022/10/18 12:47:05;;;;;;;4.85;0.80;;;17.30;99.90;;;;;;5108891;28;20032;-73
2022/10/18 12:49:36;;;;;;;2.53;0.80;;;17.20;99.90;;;;;;5105113;28;20442;-73
2022/10/18 12:52:05;;;;;;;5.88;0.98;;;17.20;99.90;;;;;;5108212;28;20043;-72
2022/10/18 12:54:36;;;;;;;2.60;1.27;;;17.10;99.90;;;;;;5102143;28;20047;-73
2022/10/18 12:57:05;;;;;;;4.68;1.00;;;17.10;99.90;;;;;;5107196;28;20043;-73
2022/10/18 12:59:31;;;;;;;5.85;0.90;;;17.10;99.90;;;;;;5106494;28;20079;-72
2022/10/18 13:01:59;;;;;;;3.60;0.95;;;17.30;99.90;;;;;;5093908;28;20316;-72
2022/10/18 13:04:28;;;;;;;4.43;0.70;;;17.30;99.90;;;;;;5102855;28;20437;-72